sensor_id;sensor_type;location;lat;lon;timestamp;pressure;altitude;pressure_sealevel;temperature;humidity
68654;BME280;55636;51.108;13.622;2023-07-13T00:00:39;99978.59;;;22.83;37.52
68654;BME280;55636;51.108;13.622;2023-07-13T00:01:42;99978.59;;;22.83;37.70
68654;BME280;55636;51.108;13.622;2023-07-13T00:02:45;99979.81;;;22.82;37.50
68654;BME280;55636;51.108;13.622;2023-07-13T00:03:47;99976.16;;;22.82;37.73
68654;BME280;55636;51.108;13.622;2023-07-13T00:04:50;99980.13;;;22.81;37.68
68654;BME280;55636;51.108;13.622;2023-07-13T00:06:01;99983.78;;;22.81;37.63
68654;BME280;55636;51.108;13.622;2023-07-13T00:07:03;99980.47;;;22.79;37.57
68654;BME280;55636;51.108;13.622;2023-07-13T00:08:06;99980.13;;;22.81;37.88
68654;BME280;55636;51.108;13.622;2023-07-13T00:09:14;99978.84;;;22.78;37.88
68654;BME280;55636;51.108;13.622;2023-07-13T00:10:17;99979.69;;;22.79;37.83
68654;BME280;55636;51.108;13.622;2023-07-13T00:11:19;99975.22;;;22.78;37.85
68654;BME280;55636;51.108;13.622;2023-07-13T00:12:26;99971.13;;;22.75;38.02
68654;BME280;55636;51.108;13.622;2023-07-13T00:13:30;99974.72;;;22.76;37.74
68654;BME280;55636;51.108;13.622;2023-07-13T00:14:32;99972.28;;;22.74;38.16
68654;BME280;55636;51.108;13.622;2023-07-13T00:15:36;99973.13;;;22.75;38.06
68654;BME280;55636;51.108;13.622;2023-07-13T00:16:39;99974.28;;;22.73;38.09
68654;BME280;55636;51.108;13.622;2023-07-13T00:17:43;99973.47;;;22.73;38.08
68654;BME280;55636;51.108;13.622;2023-07-13T00:18:49;99972.63;;;22.72;38.21
68654;BME280;55636;51.108;13.622;2023-07-13T00:19:51;99978.28;;;22.72;38.48
68654;BME280;55636;51.108;13.622;2023-07-13T00:20:54;99990.69;;;22.71;38.30
68654;BME280;55636;51.108;13.622;2023-07-13T00:21:56;99989.88;;;22.71;38.39
68654;BME280;55636;51.108;13.622;2023-07-13T00:22:58;99990.25;;;22.69;38.18
68654;BME280;55636;51.108;13.622;2023-07-13T00:24:01;99999.50;;;22.70;38.33
68654;BME280;55636;51.108;13.622;2023-07-13T00:25:04;99993.88;;;22.70;38.42
68654;BME280;55636;51.108;13.622;2023-07-13T00:26:09;99998.69;;;22.69;38.32
68654;BME280;55636;51.108;13.622;2023-07-13T00:27:14;99995.03;;;22.69;38.16
68654;BME280;55636;51.108;13.622;2023-07-13T00:28:16;100004.69;;;22.68;38.40
68654;BME280;55636;51.108;13.622;2023-07-13T00:29:19;100011.13;;;22.68;38.43
68654;BME280;55636;51.108;13.622;2023-07-13T00:30:23;100008.28;;;22.68;38.40
68654;BME280;55636;51.108;13.622;2023-07-13T00:31:26;100011.47;;;22.67;38.46
68654;BME280;55636;51.108;13.622;2023-07-13T00:32:28;100011.47;;;22.67;38.32
68654;BME280;55636;51.108;13.622;2023-07-13T00:33:31;100013.81;;;22.65;38.18
68654;BME280;55636;51.108;13.622;2023-07-13T00:34:35;100009.81;;;22.66;38.23
68654;BME280;55636;51.108;13.622;2023-07-13T00:35:37;100010.19;;;22.64;38.55
68654;BME280;55636;51.108;13.622;2023-07-13T00:36:41;100017.78;;;22.64;38.69
68654;BME280;55636;51.108;13.622;2023-07-13T00:37:43;100014.16;;;22.63;38.58
68654;BME280;55636;51.108;13.622;2023-07-13T00:38:47;100016.97;;;22.63;38.41
68654;BME280;55636;51.108;13.622;2023-07-13T00:39:49;100031.03;;;22.63;38.76
68654;BME280;55636;51.108;13.622;2023-07-13T00:40:52;100044.31;;;22.63;38.80
68654;BME280;55636;51.108;13.622;2023-07-13T00:41:54;100046.28;;;22.62;39.02
68654;BME280;55636;51.108;13.622;2023-07-13T00:42:58;100056.72;;;22.62;39.23
68654;BME280;55636;51.108;13.622;2023-07-13T00:44:02;100064.34;;;22.61;39.21
68654;BME280;55636;51.108;13.622;2023-07-13T00:46:21;100065.06;;;22.58;39.70
68654;BME280;55636;51.108;13.622;2023-07-13T00:47:24;100064.25;;;22.58;39.25
68654;BME280;55636;51.108;13.622;2023-07-13T00:48:33;100060.59;;;22.57;39.71
68654;BME280;55636;51.108;13.622;2023-07-13T00:49:38;100058.94;;;22.56;39.50
68654;BME280;55636;51.108;13.622;2023-07-13T00:50:41;100058.59;;;22.58;39.63
68654;BME280;55636;51.108;13.622;2023-07-13T00:51:49;100050.50;;;22.56;39.56
68654;BME280;55636;51.108;13.622;2023-07-13T00:52:53;100051.69;;;22.55;39.43
68654;BME280;55636;51.108;13.622;2023-07-13T00:53:59;100056.13;;;22.56;39.26
68654;BME280;55636;51.108;13.622;2023-07-13T00:55:04;100056.03;;;22.52;39.27
68654;BME280;55636;51.108;13.622;2023-07-13T00:56:06;100054.03;;;22.53;39.52
68654;BME280;55636;51.108;13.622;2023-07-13T00:57:12;100047.44;;;22.49;39.59
68654;BME280;55636;51.108;13.622;2023-07-13T00:58:17;100048.25;;;22.49;39.48
68654;BME280;55636;51.108;13.622;2023-07-13T00:59:20;100045.81;;;22.48;39.67
68654;BME280;55636;51.108;13.622;2023-07-13T01:00:25;100042.19;;;22.47;39.52
68654;BME280;55636;51.108;13.622;2023-07-13T01:01:28;100042.84;;;22.44;39.60
68654;BME280;55636;51.108;13.622;2023-07-13T01:02:30;100044.06;;;22.43;39.69
68654;BME280;55636;51.108;13.622;2023-07-13T01:03:35;100035.94;;;22.42;39.92
68654;BME280;55636;51.108;13.622;2023-07-13T01:04:37;100025.88;;;22.41;39.92
68654;BME280;55636;51.108;13.622;2023-07-13T01:05:41;100021.41;;;22.39;40.23
68654;BME280;55636;51.108;13.622;2023-07-13T01:06:43;100018.13;;;22.37;40.36
68654;BME280;55636;51.108;13.622;2023-07-13T01:07:49;100018.13;;;22.37;40.33
68654;BME280;55636;51.108;13.622;2023-07-13T01:08:53;100006.06;;;22.37;40.28
68654;BME280;55636;51.108;13.622;2023-07-13T01:09:56;100000.78;;;22.35;40.38
68654;BME280;55636;51.108;13.622;2023-07-13T01:10:59;99997.13;;;22.35;40.17
68654;BME280;55636;51.108;13.622;2023-07-13T01:12:01;99997.13;;;22.35;40.10
68654;BME280;55636;51.108;13.622;2023-07-13T01:13:07;99993.88;;;22.33;40.25
68654;BME280;55636;51.108;13.622;2023-07-13T01:14:09;99994.66;;;22.33;40.30
68654;BME280;55636;51.108;13.622;2023-07-13T01:16:37;100003.81;;;22.30;40.52
68654;BME280;55636;51.108;13.622;2023-07-13T01:17:40;100006.63;;;22.30;40.53
68654;BME280;55636;51.108;13.622;2023-07-13T01:18:42;100002.97;;;22.30;40.37
68654;BME280;55636;51.108;13.622;2023-07-13T01:19:45;100006.97;;;22.29;40.63
68654;BME280;55636;51.108;13.622;2023-07-13T01:20:57;99994.91;;;22.28;40.10
68654;BME280;55636;51.108;13.622;2023-07-13T01:22:00;100002.53;;;22.28;40.58
68654;BME280;55636;51.108;13.622;2023-07-13T01:23:08;99999.22;;;22.26;40.52
68654;BME280;55636;51.108;13.622;2023-07-13T01:24:11;100006.00;;;22.25;40.69
68654;BME280;55636;51.108;13.622;2023-07-13T01:25:14;100010.84;;;22.24;40.60
68654;BME280;55636;51.108;13.622;2023-07-13T01:26:18;100008.03;;;22.24;40.89
68654;BME280;55636;51.108;13.622;2023-07-13T01:27:23;100009.53;;;22.21;40.66
68654;BME280;55636;51.108;13.622;2023-07-13T01:28:28;100012.34;;;22.21;40.90
68654;BME280;55636;51.108;13.622;2023-07-13T01:29:33;100014.69;;;22.19;41.06
68654;BME280;55636;51.108;13.622;2023-07-13T01:30:38;100023.47;;;22.18;41.23
68654;BME280;55636;51.108;13.622;2023-07-13T01:31:42;100024.63;;;22.17;40.83
68654;BME280;55636;51.108;13.622;2023-07-13T01:32:46;100025.81;;;22.16;41.07
68654;BME280;55636;51.108;13.622;2023-07-13T01:33:49;100018.56;;;22.15;40.78
68654;BME280;55636;51.108;13.622;2023-07-13T01:34:52;100020.50;;;22.14;40.80
68654;BME280;55636;51.108;13.622;2023-07-13T01:35:58;100027.00;;;22.15;40.82
68654;BME280;55636;51.108;13.622;2023-07-13T01:37:00;100035.44;;;22.15;40.88
68654;BME280;55636;51.108;13.622;2023-07-13T01:38:04;100018.03;;;22.13;40.98
68654;BME280;55636;51.108;13.622;2023-07-13T01:39:07;100020.03;;;22.12;40.94
68654;BME280;55636;51.108;13.622;2023-07-13T01:40:10;100024.81;;;22.12;41.24
68654;BME280;55636;51.108;13.622;2023-07-13T01:41:15;100020.38;;;22.11;41.15
68654;BME280;55636;51.108;13.622;2023-07-13T01:42:18;100019.56;;;22.10;41.33
68654;BME280;55636;51.108;13.622;2023-07-13T01:43:22;100015.94;;;22.10;41.19
68654;BME280;55636;51.108;13.622;2023-07-13T01:44:25;100020.25;;;22.07;41.04
68654;BME280;55636;51.108;13.622;2023-07-13T01:45:29;100020.59;;;22.05;41.10
68654;BME280;55636;51.108;13.622;2023-07-13T01:46:31;100018.97;;;22.04;41.57
68654;BME280;55636;51.108;13.622;2023-07-13T01:47:34;100020.97;;;22.04;41.35
68654;BME280;55636;51.108;13.622;2023-07-13T01:48:36;100017.66;;;22.02;41.54
68654;BME280;55636;51.108;13.622;2023-07-13T01:49:38;100011.56;;;22.00;41.42
68654;BME280;55636;51.108;13.622;2023-07-13T01:50:41;100015.56;;;21.99;41.71
68654;BME280;55636;51.108;13.622;2023-07-13T01:51:44;100017.88;;;21.97;41.53
68654;BME280;55636;51.108;13.622;2023-07-13T01:52:46;100016.22;;;21.96;41.34
68654;BME280;55636;51.108;13.622;2023-07-13T01:53:49;100017.75;;;21.93;41.78
68654;BME280;55636;51.108;13.622;2023-07-13T01:54:52;100010.47;;;21.92;41.97
68654;BME280;55636;51.108;13.622;2023-07-13T01:55:54;100006.84;;;21.92;41.88
68654;BME280;55636;51.108;13.622;2023-07-13T01:56:57;100012.47;;;21.92;41.81
68654;BME280;55636;51.108;13.622;2023-07-13T01:57:59;100009.16;;;21.89;42.03
68654;BME280;55636;51.108;13.622;2023-07-13T01:59:02;100020.09;;;21.91;41.74
68654;BME280;55636;51.108;13.622;2023-07-13T02:00:06;100021.59;;;21.88;41.88
68654;BME280;55636;51.108;13.622;2023-07-13T02:01:16;100015.84;;;21.85;41.74
68654;BME280;55636;51.108;13.622;2023-07-13T02:02:19;100013.38;;;21.83;42.13
68654;BME280;55636;51.108;13.622;2023-07-13T02:03:22;100016.19;;;21.83;42.28
68654;BME280;55636;51.108;13.622;2023-07-13T02:04:24;100017.38;;;21.82;42.04
68654;BME280;55636;51.108;13.622;2023-07-13T02:05:27;100019.38;;;21.82;42.16
68654;BME280;55636;51.108;13.622;2023-07-13T02:06:29;100018.06;;;21.79;42.41
68654;BME280;55636;51.108;13.622;2023-07-13T02:07:32;100015.25;;;21.79;42.16
68654;BME280;55636;51.108;13.622;2023-07-13T02:08:34;100007.97;;;21.78;42.02
68654;BME280;55636;51.108;13.622;2023-07-13T02:09:37;100017.22;;;21.79;42.29
68654;BME280;55636;51.108;13.622;2023-07-13T02:10:39;100012.31;;;21.76;42.50
68654;BME280;55636;51.108;13.622;2023-07-13T02:11:42;100012.66;;;21.74;42.60
68654;BME280;55636;51.108;13.622;2023-07-13T02:12:44;100012.16;;;21.72;42.51
68654;BME280;55636;51.108;13.622;2023-07-13T02:13:47;100019.78;;;21.71;42.60
68654;BME280;55636;51.108;13.622;2023-07-13T02:14:49;100011.69;;;21.70;42.65
68654;BME280;55636;51.108;13.622;2023-07-13T02:15:52;100008.41;;;21.68;42.45
68654;BME280;55636;51.108;13.622;2023-07-13T02:16:54;100009.56;;;21.67;42.47
68654;BME280;55636;51.108;13.622;2023-07-13T02:17:57;100010.72;;;21.66;42.62
68654;BME280;55636;51.108;13.622;2023-07-13T02:19:00;100013.06;;;21.64;42.68
68654;BME280;55636;51.108;13.622;2023-07-13T02:20:04;100012.59;;;21.62;42.72
68654;BME280;55636;51.108;13.622;2023-07-13T02:21:07;100020.22;;;21.61;43.02
68654;BME280;55636;51.108;13.622;2023-07-13T02:22:09;100026.16;;;21.60;42.85
68654;BME280;55636;51.108;13.622;2023-07-13T02:23:12;100023.69;;;21.58;42.99
68654;BME280;55636;51.108;13.622;2023-07-13T02:24:14;100022.06;;;21.57;43.23
68654;BME280;55636;51.108;13.622;2023-07-13T02:25:19;100026.84;;;21.56;42.91
68654;BME280;55636;51.108;13.622;2023-07-13T02:26:23;100017.97;;;21.54;43.01
68654;BME280;55636;51.108;13.622;2023-07-13T02:27:26;100014.31;;;21.54;43.11
68654;BME280;55636;51.108;13.622;2023-07-13T02:28:29;100021.94;;;21.53;43.37
68654;BME280;55636;51.108;13.622;2023-07-13T02:29:31;100021.44;;;21.51;43.12
68654;BME280;55636;51.108;13.622;2023-07-13T02:30:34;100019.78;;;21.50;43.34
68654;BME280;55636;51.108;13.622;2023-07-13T02:31:37;100024.59;;;21.50;43.59
68654;BME280;55636;51.108;13.622;2023-07-13T02:32:39;100021.28;;;21.48;43.51
68654;BME280;55636;51.108;13.622;2023-07-13T02:33:42;100023.28;;;21.47;43.49
68654;BME280;55636;51.108;13.622;2023-07-13T02:34:45;100020.81;;;21.46;43.63
68654;BME280;55636;51.108;13.622;2023-07-13T02:35:48;100016.38;;;21.45;43.62
68654;BME280;55636;51.108;13.622;2023-07-13T02:36:50;100013.91;;;21.43;43.58
68654;BME280;55636;51.108;13.622;2023-07-13T02:37:53;100019.53;;;21.43;43.59
68654;BME280;55636;51.108;13.622;2023-07-13T02:38:55;100026.28;;;21.42;43.66
68654;BME280;55636;51.108;13.622;2023-07-13T02:39:57;100026.28;;;21.42;43.71
68654;BME280;55636;51.108;13.622;2023-07-13T02:41:00;100030.25;;;21.41;43.72
68654;BME280;55636;51.108;13.622;2023-07-13T02:42:03;100033.41;;;21.39;43.66
68654;BME280;55636;51.108;13.622;2023-07-13T02:43:06;100024.97;;;21.39;43.70
68654;BME280;55636;51.108;13.622;2023-07-13T02:44:08;100035.72;;;21.37;43.60
68654;BME280;55636;51.108;13.622;2023-07-13T02:45:11;100030.44;;;21.36;43.87
68654;BME280;55636;51.108;13.622;2023-07-13T02:46:15;100034.44;;;21.35;44.00
68654;BME280;55636;51.108;13.622;2023-07-13T02:47:18;100039.56;;;21.33;43.96
68654;BME280;55636;51.108;13.622;2023-07-13T02:48:22;100037.91;;;21.32;44.07
68654;BME280;55636;51.108;13.622;2023-07-13T02:49:25;100037.09;;;21.31;44.25
68654;BME280;55636;51.108;13.622;2023-07-13T02:50:28;100032.66;;;21.30;44.10
68654;BME280;55636;51.108;13.622;2023-07-13T02:51:32;100045.03;;;21.29;44.37
68654;BME280;55636;51.108;13.622;2023-07-13T02:52:36;100037.78;;;21.28;44.06
68654;BME280;55636;51.108;13.622;2023-07-13T02:53:38;100038.13;;;21.27;44.29
68654;BME280;55636;51.108;13.622;2023-07-13T02:54:41;100034.84;;;21.24;44.37
68654;BME280;55636;51.108;13.622;2023-07-13T02:55:43;100036.34;;;21.22;44.43
68654;BME280;55636;51.108;13.622;2023-07-13T02:56:49;100033.53;;;21.22;44.68
68654;BME280;55636;51.108;13.622;2023-07-13T02:57:51;100027.09;;;21.21;44.62
68654;BME280;55636;51.108;13.622;2023-07-13T02:58:54;100025.44;;;21.20;44.53
68654;BME280;55636;51.108;13.622;2023-07-13T02:59:56;100025.31;;;21.17;44.81
68654;BME280;55636;51.108;13.622;2023-07-13T03:00:59;100029.28;;;21.16;44.68
68654;BME280;55636;51.108;13.622;2023-07-13T03:02:02;100024.81;;;21.15;44.64
68654;BME280;55636;51.108;13.622;2023-07-13T03:03:05;100021.84;;;21.11;44.46
68654;BME280;55636;51.108;13.622;2023-07-13T03:04:08;100028.31;;;21.12;44.86
68654;BME280;55636;51.108;13.622;2023-07-13T03:05:10;100033.94;;;21.12;44.80
68654;BME280;55636;51.108;13.622;2023-07-13T03:06:16;100034.59;;;21.08;44.61
68654;BME280;55636;51.108;13.622;2023-07-13T03:07:25;100031.78;;;21.08;44.73
68654;BME280;55636;51.108;13.622;2023-07-13T03:08:31;100034.94;;;21.07;44.54
68654;BME280;55636;51.108;13.622;2023-07-13T03:09:34;100042.91;;;21.05;44.55
68654;BME280;55636;51.108;13.622;2023-07-13T03:10:39;100044.06;;;21.04;44.61
68654;BME280;55636;51.108;13.622;2023-07-13T03:11:45;100047.22;;;21.02;44.51
68654;BME280;55636;51.108;13.622;2023-07-13T03:12:55;100044.72;;;21.01;44.76
68654;BME280;55636;51.108;13.622;2023-07-13T03:14:02;100048.72;;;21.00;45.03
68654;BME280;55636;51.108;13.622;2023-07-13T03:15:08;100049.03;;;20.98;44.69
68654;BME280;55636;51.108;13.622;2023-07-13T03:16:15;100046.22;;;20.98;44.99
68654;BME280;55636;51.108;13.622;2023-07-13T03:17:23;100050.66;;;20.99;45.19
68654;BME280;55636;51.108;13.622;2023-07-13T03:18:27;100053.00;;;20.97;45.32
68654;BME280;55636;51.108;13.622;2023-07-13T03:19:31;100048.56;;;20.96;45.19
68654;BME280;55636;51.108;13.622;2023-07-13T03:20:35;100054.16;;;20.96;45.15
68654;BME280;55636;51.108;13.622;2023-07-13T03:21:38;100048.91;;;20.95;45.31
68654;BME280;55636;51.108;13.622;2023-07-13T03:22:40;100047.25;;;20.94;45.35
68654;BME280;55636;51.108;13.622;2023-07-13T03:23:46;100049.22;;;20.93;45.30
68654;BME280;55636;51.108;13.622;2023-07-13T03:24:49;100052.38;;;20.91;45.29
68654;BME280;55636;51.108;13.622;2023-07-13T03:26:01;100059.97;;;20.91;45.22
68654;BME280;55636;51.108;13.622;2023-07-13T03:27:05;100055.88;;;20.88;45.55
68654;BME280;55636;51.108;13.622;2023-07-13T03:28:11;100050.59;;;20.87;45.34
68654;BME280;55636;51.108;13.622;2023-07-13T03:29:14;100057.69;;;20.84;45.52
68654;BME280;55636;51.108;13.622;2023-07-13T03:30:17;100058.84;;;20.83;45.39
68654;BME280;55636;51.108;13.622;2023-07-13T03:31:25;100059.19;;;20.82;45.76
68654;BME280;55636;51.108;13.622;2023-07-13T03:32:28;100062.66;;;20.79;45.51
68654;BME280;55636;51.108;13.622;2023-07-13T03:33:31;100061.84;;;20.78;45.72
68654;BME280;55636;51.108;13.622;2023-07-13T03:34:34;100069.78;;;20.76;45.98
68654;BME280;55636;51.108;13.622;2023-07-13T03:35:40;100065.34;;;20.75;46.02
68654;BME280;55636;51.108;13.622;2023-07-13T03:36:43;100062.03;;;20.73;45.97
68654;BME280;55636;51.108;13.622;2023-07-13T03:37:47;100056.78;;;20.71;45.96
68654;BME280;55636;51.108;13.622;2023-07-13T03:38:56;100055.13;;;20.70;46.16
68654;BME280;55636;51.108;13.622;2023-07-13T03:40:02;100057.38;;;20.68;46.27
68654;BME280;55636;51.108;13.622;2023-07-13T03:41:05;100057.72;;;20.67;46.38
68654;BME280;55636;51.108;13.622;2023-07-13T03:42:08;100065.34;;;20.66;46.27
68654;BME280;55636;51.108;13.622;2023-07-13T03:43:10;100062.03;;;20.64;46.41
68654;BME280;55636;51.108;13.622;2023-07-13T03:44:12;100071.63;;;20.63;46.54
68654;BME280;55636;51.108;13.622;2023-07-13T03:45:15;100063.53;;;20.62;46.25
68654;BME280;55636;51.108;13.622;2023-07-13T03:46:18;100069.47;;;20.60;46.51
68654;BME280;55636;51.108;13.622;2023-07-13T03:47:22;100068.16;;;20.57;46.72
68654;BME280;55636;51.108;13.622;2023-07-13T03:48:24;100065.72;;;20.56;46.48
68654;BME280;55636;51.108;13.622;2023-07-13T03:49:27;100072.47;;;20.55;46.68
68654;BME280;55636;51.108;13.622;2023-07-13T03:50:29;100072.00;;;20.53;46.68
68654;BME280;55636;51.108;13.622;2023-07-13T03:51:32;100075.13;;;20.51;46.95
68654;BME280;55636;51.108;13.622;2023-07-13T03:52:35;100079.91;;;20.51;47.25
68654;BME280;55636;51.108;13.622;2023-07-13T03:53:39;100075.47;;;20.50;47.17
68654;BME280;55636;51.108;13.622;2023-07-13T03:54:43;100085.03;;;20.49;47.14
68654;BME280;55636;51.108;13.622;2023-07-13T03:55:45;100080.59;;;20.48;47.34
68654;BME280;55636;51.108;13.622;2023-07-13T03:56:48;100078.94;;;20.47;46.98
68654;BME280;55636;51.108;13.622;2023-07-13T03:57:57;100090.50;;;20.45;47.22
68654;BME280;55636;51.108;13.622;2023-07-13T03:58:59;100092.47;;;20.45;47.42
68654;BME280;55636;51.108;13.622;2023-07-13T04:00:02;100102.88;;;20.44;47.04
68654;BME280;55636;51.108;13.622;2023-07-13T04:01:18;100102.88;;;20.44;47.07
68654;BME280;55636;51.108;13.622;2023-07-13T04:02:21;100103.22;;;20.42;47.46
68654;BME280;55636;51.108;13.622;2023-07-13T04:03:24;100106.03;;;20.42;47.18
68654;BME280;55636;51.108;13.622;2023-07-13T04:04:27;100100.75;;;20.41;47.49
68654;BME280;55636;51.108;13.622;2023-07-13T04:05:29;100097.94;;;20.41;47.50
68654;BME280;55636;51.108;13.622;2023-07-13T04:06:33;100100.75;;;20.41;47.51
68654;BME280;55636;51.108;13.622;2023-07-13T04:07:36;100096.28;;;20.40;47.57
68654;BME280;55636;51.108;13.622;2023-07-13T04:08:38;100099.44;;;20.38;47.40
68654;BME280;55636;51.108;13.622;2023-07-13T04:09:41;100104.19;;;20.38;47.64
68654;BME280;55636;51.108;13.622;2023-07-13T04:10:45;100103.06;;;20.39;47.25
68654;BME280;55636;51.108;13.622;2023-07-13T04:11:47;100105.03;;;20.38;47.42
68654;BME280;55636;51.108;13.622;2023-07-13T04:12:50;100108.66;;;20.39;47.52
68654;BME280;55636;51.108;13.622;2023-07-13T04:13:52;100106.19;;;20.37;47.35
68654;BME280;55636;51.108;13.622;2023-07-13T04:14:55;100115.09;;;20.39;47.50
68654;BME280;55636;51.108;13.622;2023-07-13T04:15:57;100111.81;;;20.37;47.29
68654;BME280;55636;51.108;13.622;2023-07-13T04:17:00;100103.38;;;20.37;47.53
68654;BME280;55636;51.108;13.622;2023-07-13T04:18:02;100114.63;;;20.37;47.26
68654;BME280;55636;51.108;13.622;2023-07-13T04:19:05;100113.78;;;20.37;47.36
68654;BME280;55636;51.108;13.622;2023-07-13T04:20:08;100116.25;;;20.38;47.51
68654;BME280;55636;51.108;13.622;2023-07-13T04:21:10;100118.22;;;20.38;47.36
68654;BME280;55636;51.108;13.622;2023-07-13T04:22:13;100113.78;;;20.37;47.68
68654;BME280;55636;51.108;13.622;2023-07-13T04:23:18;100109.00;;;20.37;47.33
68654;BME280;55636;51.108;13.622;2023-07-13T04:24:21;100104.19;;;20.38;47.34
68654;BME280;55636;51.108;13.622;2023-07-13T04:25:23;100107.00;;;20.38;47.54
68654;BME280;55636;51.108;13.622;2023-07-13T04:26:26;100110.66;;;20.38;47.62
68654;BME280;55636;51.108;13.622;2023-07-13T04:27:28;100112.63;;;20.38;47.34
68654;BME280;55636;51.108;13.622;2023-07-13T04:28:31;100110.66;;;20.38;47.65
68654;BME280;55636;51.108;13.622;2023-07-13T04:29:33;100119.06;;;20.38;47.52
68654;BME280;55636;51.108;13.622;2023-07-13T04:30:36;100105.03;;;20.38;47.44
68654;BME280;55636;51.108;13.622;2023-07-13T04:31:38;100110.66;;;20.38;47.65
68654;BME280;55636;51.108;13.622;2023-07-13T04:32:40;100108.66;;;20.39;47.47
68654;BME280;55636;51.108;13.622;2023-07-13T04:33:43;100111.47;;;20.39;47.31
68654;BME280;55636;51.108;13.622;2023-07-13T04:34:48;100108.66;;;20.39;47.36
68654;BME280;55636;51.108;13.622;2023-07-13T04:35:55;100122.34;;;20.40;47.67
68654;BME280;55636;51.108;13.622;2023-07-13T04:36:58;100110.66;;;20.38;47.49
68654;BME280;55636;51.108;13.622;2023-07-13T04:38:01;100120.69;;;20.39;47.33
68654;BME280;55636;51.108;13.622;2023-07-13T04:39:04;100113.13;;;20.40;47.49
68654;BME280;55636;51.108;13.622;2023-07-13T04:40:07;100117.56;;;20.41;47.64
68654;BME280;55636;51.108;13.622;2023-07-13T04:41:14;100113.59;;;20.42;47.49
68654;BME280;55636;51.108;13.622;2023-07-13T04:42:17;100119.19;;;20.42;47.65
68654;BME280;55636;51.108;13.622;2023-07-13T04:43:20;100120.03;;;20.42;47.82
68654;BME280;55636;51.108;13.622;2023-07-13T04:44:22;100118.91;;;20.44;47.54
68654;BME280;55636;51.108;13.622;2023-07-13T04:45:25;100124.50;;;20.44;47.66
68654;BME280;55636;51.108;13.622;2023-07-13T04:46:28;100118.91;;;20.44;47.54
68654;BME280;55636;51.108;13.622;2023-07-13T04:47:32;100123.31;;;20.45;47.62
68654;BME280;55636;51.108;13.622;2023-07-13T04:48:34;100114.91;;;20.45;47.37
68654;BME280;55636;51.108;13.622;2023-07-13T04:49:37;100118.56;;;20.45;47.44
68654;BME280;55636;51.108;13.622;2023-07-13T04:50:39;100115.41;;;20.47;47.87
68654;BME280;55636;51.108;13.622;2023-07-13T04:51:42;100111.47;;;20.48;47.39
68654;BME280;55636;51.108;13.622;2023-07-13T04:52:44;100123.16;;;20.50;47.41
68654;BME280;55636;51.108;13.622;2023-07-13T04:53:46;100118.38;;;20.50;47.35
68654;BME280;55636;51.108;13.622;2023-07-13T04:54:49;100105.66;;;20.53;47.66
68654;BME280;55636;51.108;13.622;2023-07-13T04:55:51;100122.97;;;20.55;47.63
68654;BME280;55636;51.108;13.622;2023-07-13T04:56:54;100115.88;;;20.57;47.59
68654;BME280;55636;51.108;13.622;2023-07-13T04:57:57;100111.22;;;20.62;47.40
68654;BME280;55636;51.108;13.622;2023-07-13T04:59:00;100106.13;;;20.64;47.48
68654;BME280;55636;51.108;13.622;2023-07-13T05:00:04;100106.63;;;20.66;47.70
68654;BME280;55636;51.108;13.622;2023-07-13T05:01:09;100103.13;;;20.69;47.64
68654;BME280;55636;51.108;13.622;2023-07-13T05:02:12;100102.47;;;20.72;47.58
68654;BME280;55636;51.108;13.622;2023-07-13T05:03:15;100111.06;;;20.75;47.34
68654;BME280;55636;51.108;13.622;2023-07-13T05:04:19;100104.75;;;20.79;47.28
68654;BME280;55636;51.108;13.622;2023-07-13T05:05:21;100109.72;;;20.82;47.12
68654;BME280;55636;51.108;13.622;2023-07-13T05:06:24;100106.22;;;20.85;47.29
68654;BME280;55636;51.108;13.622;2023-07-13T05:07:26;100104.38;;;20.89;46.96
68654;BME280;55636;51.108;13.622;2023-07-13T05:08:29;100109.34;;;20.92;46.90
68654;BME280;55636;51.108;13.622;2023-07-13T05:09:31;100109.47;;;20.96;46.96
68654;BME280;55636;51.108;13.622;2023-07-13T05:10:35;100106.34;;;20.97;46.77
68654;BME280;55636;51.108;13.622;2023-07-13T05:11:38;100110.13;;;21.01;46.69
68654;BME280;55636;51.108;13.622;2023-07-13T05:12:40;100112.59;;;21.03;46.55
68654;BME280;55636;51.108;13.622;2023-07-13T05:13:42;100116.72;;;21.05;46.81
68654;BME280;55636;51.108;13.622;2023-07-13T05:14:45;100107.59;;;21.08;46.70
68654;BME280;55636;51.108;13.622;2023-07-13T05:15:55;100104.47;;;21.10;46.38
68654;BME280;55636;51.108;13.622;2023-07-13T05:16:58;100116.19;;;21.12;46.48
68654;BME280;55636;51.108;13.622;2023-07-13T05:18:01;100107.06;;;21.15;46.44
68654;BME280;55636;51.108;13.622;2023-07-13T05:19:03;100115.63;;;21.19;46.70
68654;BME280;55636;51.108;13.622;2023-07-13T05:20:07;100118.59;;;21.22;46.56
68654;BME280;55636;51.108;13.622;2023-07-13T05:21:11;100117.91;;;21.25;46.41
68654;BME280;55636;51.108;13.622;2023-07-13T05:22:15;100117.25;;;21.29;46.74
68654;BME280;55636;51.108;13.622;2023-07-13T05:23:17;100118.91;;;21.30;46.48
68654;BME280;55636;51.108;13.622;2023-07-13T05:24:20;100123.84;;;21.33;46.55
68654;BME280;55636;51.108;13.622;2023-07-13T05:25:27;100121.97;;;21.37;46.49
68654;BME280;55636;51.108;13.622;2023-07-13T05:26:29;100122.47;;;21.39;46.50
68654;BME280;55636;51.108;13.622;2023-07-13T05:27:32;100114.53;;;21.41;46.03
68654;BME280;55636;51.108;13.622;2023-07-13T05:28:34;100120.31;;;21.45;46.08
68654;BME280;55636;51.108;13.622;2023-07-13T05:29:37;100123.75;;;21.50;46.19
68654;BME280;55636;51.108;13.622;2023-07-13T05:30:39;100119.78;;;21.51;46.19